sensor_id;sensor_type;location;lat;lon;timestamp;pressure;altitude;pressure_sealevel;temperature;humidity
10652;BME280;5374;42.742;23.266;2023-07-28T00:02:35;95530.22;;;16.36;62.30
10652;BME280;5374;42.742;23.266;2023-07-28T00:05:22;95528.13;;;16.33;62.13
10652;BME280;5374;42.742;23.266;2023-07-28T00:08:09;95535.63;;;16.31;62.03
10652;BME280;5374;42.742;23.266;2023-07-28T00:10:56;95536.19;;;16.28;62.22
10652;BME280;5374;42.742;23.266;2023-07-28T00:13:45;95537.34;;;16.22;62.28
10652;BME280;5374;42.742;23.266;2023-07-28T00:16:32;95529.63;;;16.16;62.40
10652;BME280;5374;42.742;23.266;2023-07-28T00:19:19;95537.63;;;16.21;62.59
10652;BME280;5374;42.742;23.266;2023-07-28T00:22:06;95523.75;;;16.14;62.72
10652;BME280;5374;42.742;23.266;2023-07-28T00:24:54;95512.00;;;16.10;62.62
10652;BME280;5374;42.742;23.266;2023-07-28T00:27:41;95509.19;;;15.96;62.67
10652;BME280;5374;42.742;23.266;2023-07-28T00:30:30;95515.59;;;16.00;63.10
10652;BME280;5374;42.742;23.266;2023-07-28T00:33:18;95523.53;;;15.81;63.40
10652;BME280;5374;42.742;23.266;2023-07-28T00:36:05;95526.75;;;15.78;63.54
10652;BME280;5374;42.742;23.266;2023-07-28T00:38:52;95520.63;;;15.72;63.71
10652;BME280;5374;42.742;23.266;2023-07-28T00:41:39;95508.97;;;15.58;64.06
10652;BME280;5374;42.742;23.266;2023-07-28T00:44:26;95518.56;;;15.59;64.50
10652;BME280;5374;42.742;23.266;2023-07-28T00:47:15;95523.66;;;15.61;64.50
10652;BME280;5374;42.742;23.266;2023-07-28T00:50:02;95535.22;;;15.51;64.70
10652;BME280;5374;42.742;23.266;2023-07-28T00:52:50;95514.41;;;15.38;64.68
10652;BME280;5374;42.742;23.266;2023-07-28T00:55:37;95520.56;;;15.38;64.92
10652;BME280;5374;42.742;23.266;2023-07-28T00:58:25;95530.72;;;15.36;65.15
10652;BME280;5374;42.742;23.266;2023-07-28T01:01:12;95521.81;;;15.12;65.74
10652;BME280;5374;42.742;23.266;2023-07-28T01:04:01;95519.94;;;15.13;65.84
10652;BME280;5374;42.742;23.266;2023-07-28T01:06:53;95530.59;;;15.18;66.13
10652;BME280;5374;42.742;23.266;2023-07-28T01:09:49;95528.44;;;15.15;66.45
10652;BME280;5374;42.742;23.266;2023-07-28T01:12:37;95518.88;;;15.09;66.58
10652;BME280;5374;42.742;23.266;2023-07-28T01:15:25;95527.97;;;15.13;66.77
10652;BME280;5374;42.742;23.266;2023-07-28T01:18:12;95526.84;;;15.14;66.66
10652;BME280;5374;42.742;23.266;2023-07-28T01:21:03;95527.16;;;15.12;66.94
10652;BME280;5374;42.742;23.266;2023-07-28T01:23:59;95497.03;;;14.91;67.11
10652;BME280;5374;42.742;23.266;2023-07-28T01:26:50;95516.25;;;14.98;67.49
10652;BME280;5374;42.742;23.266;2023-07-28T01:29:38;95524.78;;;15.00;67.76
10652;BME280;5374;42.742;23.266;2023-07-28T01:32:25;95516.53;;;14.92;67.78
10652;BME280;5374;42.742;23.266;2023-07-28T01:35:12;95508.28;;;14.88;67.76
10652;BME280;5374;42.742;23.266;2023-07-28T01:37:59;95513.59;;;14.93;67.85
10652;BME280;5374;42.742;23.266;2023-07-28T01:40:47;95500.81;;;14.80;67.89
10652;BME280;5374;42.742;23.266;2023-07-28T01:43:35;95514.72;;;14.87;68.08
10652;BME280;5374;42.742;23.266;2023-07-28T01:46:22;95508.31;;;14.83;68.31
10652;BME280;5374;42.742;23.266;2023-07-28T01:49:09;95524.06;;;14.85;68.45
10652;BME280;5374;42.742;23.266;2023-07-28T01:51:56;95515.28;;;14.69;69.11
10652;BME280;5374;42.742;23.266;2023-07-28T01:54:44;95530.78;;;14.72;69.39
10652;BME280;5374;42.742;23.266;2023-07-28T01:57:32;95527.03;;;14.73;69.30
10652;BME280;5374;42.742;23.266;2023-07-28T02:00:21;95528.16;;;14.67;69.60
10652;BME280;5374;42.742;23.266;2023-07-28T02:03:08;95508.16;;;14.49;69.89
10652;BME280;5374;42.742;23.266;2023-07-28T02:05:55;95525.75;;;14.60;69.79
10652;BME280;5374;42.742;23.266;2023-07-28T02:08:42;95522.28;;;14.65;69.90
10652;BME280;5374;42.742;23.266;2023-07-28T02:11:29;95516.16;;;14.49;69.86
10652;BME280;5374;42.742;23.266;2023-07-28T02:14:16;95525.50;;;14.57;70.37
10652;BME280;5374;42.742;23.266;2023-07-28T02:17:05;95529.78;;;14.53;70.46
10652;BME280;5374;42.742;23.266;2023-07-28T02:19:52;95525.50;;;14.52;70.83
10652;BME280;5374;42.742;23.266;2023-07-28T02:22:39;95525.78;;;14.50;70.86
10652;BME280;5374;42.742;23.266;2023-07-28T02:25:27;95530.31;;;14.50;71.03
10652;BME280;5374;42.742;23.266;2023-07-28T02:28:14;95495.91;;;14.28;71.01
10652;BME280;5374;42.742;23.266;2023-07-28T02:31:01;95532.47;;;14.48;71.11
10652;BME280;5374;42.742;23.266;2023-07-28T02:33:50;95520.75;;;14.44;71.18
10652;BME280;5374;42.742;23.266;2023-07-28T02:36:37;95532.72;;;14.51;71.16
10652;BME280;5374;42.742;23.266;2023-07-28T02:39:24;95534.06;;;14.49;71.00
10652;BME280;5374;42.742;23.266;2023-07-28T02:42:11;95511.66;;;14.34;70.79
10652;BME280;5374;42.742;23.266;2023-07-28T02:44:59;95528.19;;;14.47;70.78
10652;BME280;5374;42.742;23.266;2023-07-28T02:47:46;95533.28;;;14.48;70.65
10652;BME280;5374;42.742;23.266;2023-07-28T02:50:34;95527.69;;;14.45;70.67
10652;BME280;5374;42.742;23.266;2023-07-28T02:53:22;95516.44;;;14.37;70.34
10652;BME280;5374;42.742;23.266;2023-07-28T02:56:09;95523.41;;;14.44;70.24
10652;BME280;5374;42.742;23.266;2023-07-28T02:58:56;95523.97;;;14.41;70.33
10652;BME280;5374;42.742;23.266;2023-07-28T03:01:44;95529.31;;;14.41;70.15
10652;BME280;5374;42.742;23.266;2023-07-28T03:04:31;95527.44;;;14.41;70.22
10652;BME280;5374;42.742;23.266;2023-07-28T03:07:19;95540.22;;;14.39;70.09
10652;BME280;5374;42.742;23.266;2023-07-28T03:10:07;95530.09;;;14.31;70.01
10652;BME280;5374;42.742;23.266;2023-07-28T03:12:55;95532.47;;;14.32;70.03
10652;BME280;5374;42.742;23.266;2023-07-28T03:15:42;95541.81;;;14.40;69.93
10652;BME280;5374;42.742;23.266;2023-07-28T03:18:29;95534.09;;;14.38;69.75
10652;BME280;5374;42.742;23.266;2023-07-28T03:21:16;95542.09;;;14.33;69.97
10652;BME280;5374;42.742;23.266;2023-07-28T03:24:05;95541.28;;;14.38;69.86
10652;BME280;5374;42.742;23.266;2023-07-28T03:26:53;95545.84;;;14.32;69.74
10652;BME280;5374;42.742;23.266;2023-07-28T03:29:40;95541.03;;;14.29;69.90
10652;BME280;5374;42.742;23.266;2023-07-28T03:32:27;95543.97;;;14.33;69.65
10652;BME280;5374;42.742;23.266;2023-07-28T03:35:14;95533.56;;;14.26;69.83
10652;BME280;5374;42.742;23.266;2023-07-28T03:38:01;95550.66;;;14.35;69.73
10652;BME280;5374;42.742;23.266;2023-07-28T03:40:50;95547.72;;;14.37;69.80
10652;BME280;5374;42.742;23.266;2023-07-28T03:43:37;95526.66;;;14.20;69.95
10652;BME280;5374;42.742;23.266;2023-07-28T03:46:24;95559.97;;;14.53;69.54
10652;BME280;5374;42.742;23.266;2023-07-28T03:49:11;95558.63;;;14.61;69.12
10652;BME280;5374;42.742;23.266;2023-07-28T03:51:58;95556.19;;;14.69;68.80
10652;BME280;5374;42.742;23.266;2023-07-28T03:54:45;95553.22;;;14.81;68.28
10652;BME280;5374;42.742;23.266;2023-07-28T03:57:34;95558.69;;;15.15;67.49
10652;BME280;5374;42.742;23.266;2023-07-28T04:00:21;95550.03;;;16.40;63.24
10652;BME280;5374;42.742;23.266;2023-07-28T04:03:10;95555.56;;;17.21;59.81
10652;BME280;5374;42.742;23.266;2023-07-28T04:06:00;95546.97;;;17.99;57.73
10652;BME280;5374;42.742;23.266;2023-07-28T04:08:48;95549.88;;;19.31;53.22
10652;BME280;5374;42.742;23.266;2023-07-28T04:11:35;95544.56;;;20.11;49.47
10652;BME280;5374;42.742;23.266;2023-07-28T04:14:24;95548.59;;;21.15;47.17
10652;BME280;5374;42.742;23.266;2023-07-28T04:17:11;95545.53;;;22.17;44.93
10652;BME280;5374;42.742;23.266;2023-07-28T04:19:58;95546.31;;;22.90;42.48
10652;BME280;5374;42.742;23.266;2023-07-28T04:22:46;95544.69;;;22.98;41.99
10652;BME280;5374;42.742;23.266;2023-07-28T04:25:33;95553.25;;;23.38;41.36
10652;BME280;5374;42.742;23.266;2023-07-28T04:28:20;95551.66;;;23.87;40.88
10652;BME280;5374;42.742;23.266;2023-07-28T04:31:11;95557.16;;;23.78;39.81
10652;BME280;5374;42.742;23.266;2023-07-28T04:33:59;95536.72;;;23.51;40.19
10652;BME280;5374;42.742;23.266;2023-07-28T04:36:46;95556.50;;;23.81;40.45
10652;BME280;5374;42.742;23.266;2023-07-28T04:39:33;95552.38;;;24.17;39.15
10652;BME280;5374;42.742;23.266;2023-07-28T04:42:20;95565.53;;;25.05;38.05
10652;BME280;5374;42.742;23.266;2023-07-28T04:45:08;95545.28;;;26.60;35.86
10652;BME280;5374;42.742;23.266;2023-07-28T04:47:56;95561.72;;;28.28;32.92
10652;BME280;5374;42.742;23.266;2023-07-28T04:50:44;95573.75;;;29.53;31.02
10652;BME280;5374;42.742;23.266;2023-07-28T04:53:32;95569.84;;;31.11;28.94
10652;BME280;5374;42.742;23.266;2023-07-28T04:56:19;95555.00;;;32.32;27.57
10652;BME280;5374;42.742;23.266;2023-07-28T04:59:06;95530.88;;;33.16;26.70
10652;BME280;5374;42.742;23.266;2023-07-28T05:01:56;95571.53;;;34.63;25.03
10652;BME280;5374;42.742;23.266;2023-07-28T05:04:44;95566.63;;;35.51;24.17
10652;BME280;5374;42.742;23.266;2023-07-28T05:07:32;95566.66;;;36.33;23.10
10652;BME280;5374;42.742;23.266;2023-07-28T05:10:19;95554.06;;;37.43;21.91
10652;BME280;5374;42.742;23.266;2023-07-28T05:13:06;95570.69;;;38.13;21.12
10652;BME280;5374;42.742;23.266;2023-07-28T05:15:53;95576.72;;;39.07;20.54
10652;BME280;5374;42.742;23.266;2023-07-28T05:18:41;95558.50;;;39.71;19.76
10652;BME280;5374;42.742;23.266;2023-07-28T05:21:30;95582.97;;;40.09;19.50
10652;BME280;5374;42.742;23.266;2023-07-28T05:24:17;95569.34;;;40.43;18.70
10652;BME280;5374;42.742;23.266;2023-07-28T05:27:05;95555.13;;;40.67;18.53
10652;BME280;5374;42.742;23.266;2023-07-28T05:29:52;95577.53;;;40.76;18.83
10652;BME280;5374;42.742;23.266;2023-07-28T05:32:39;95550.81;;;40.91;18.54
10652;BME280;5374;42.742;23.266;2023-07-28T05:35:26;95537.22;;;41.06;18.26
10652;BME280;5374;42.742;23.266;2023-07-28T05:38:15;95562.31;;;41.06;17.97
10652;BME280;5374;42.742;23.266;2023-07-28T05:41:03;95562.13;;;39.84;18.88
10652;BME280;5374;42.742;23.266;2023-07-28T05:43:51;95571.75;;;38.79;19.89
10652;BME280;5374;42.742;23.266;2023-07-28T05:46:38;95565.38;;;35.59;22.40
10652;BME280;5374;42.742;23.266;2023-07-28T05:49:25;95569.91;;;35.87;22.38
10652;BME280;5374;42.742;23.266;2023-07-28T05:52:12;95541.78;;;34.99;23.20
10652;BME280;5374;42.742;23.266;2023-07-28T05:55:01;95543.44;;;34.86;23.76
10652;BME280;5374;42.742;23.266;2023-07-28T05:57:49;95549.94;;;34.44;24.06
10652;BME280;5374;42.742;23.266;2023-07-28T06:00:38;95550.13;;;33.62;25.36
10652;BME280;5374;42.742;23.266;2023-07-28T06:03:25;95555.22;;;32.92;26.30
10652;BME280;5374;42.742;23.266;2023-07-28T06:06:14;95539.91;;;31.98;27.02
10652;BME280;5374;42.742;23.266;2023-07-28T06:09:02;95515.41;;;31.68;27.58
10652;BME280;5374;42.742;23.266;2023-07-28T06:11:51;95476.81;;;30.54;28.77
10652;BME280;5374;42.742;23.266;2023-07-28T06:14:38;95538.66;;;30.52;28.98
10652;BME280;5374;42.742;23.266;2023-07-28T06:17:25;95541.81;;;30.54;29.01
10652;BME280;5374;42.742;23.266;2023-07-28T06:20:14;95537.78;;;29.81;30.36
10652;BME280;5374;42.742;23.266;2023-07-28T06:23:01;95548.53;;;30.23;29.99
10652;BME280;5374;42.742;23.266;2023-07-28T06:25:48;95538.72;;;30.22;30.33
10652;BME280;5374;42.742;23.266;2023-07-28T06:28:37;95537.63;;;30.30;29.47
10652;BME280;5374;42.742;23.266;2023-07-28T06:31:24;95536.09;;;30.33;29.71
10652;BME280;5374;42.742;23.266;2023-07-28T06:34:12;95535.25;;;30.25;29.34
10652;BME280;5374;42.742;23.266;2023-07-28T06:36:59;95532.56;;;30.32;29.82
10652;BME280;5374;42.742;23.266;2023-07-28T06:39:46;95539.56;;;30.26;29.33
10652;BME280;5374;42.742;23.266;2023-07-28T06:42:34;95536.47;;;30.31;28.92
10652;BME280;5374;42.742;23.266;2023-07-28T06:45:24;95523.41;;;30.17;29.32
10652;BME280;5374;42.742;23.266;2023-07-28T06:48:11;95524.56;;;29.34;29.31
10652;BME280;5374;42.742;23.266;2023-07-28T06:50:58;95532.66;;;29.26;30.32
10652;BME280;5374;42.742;23.266;2023-07-28T06:53:47;95531.13;;;29.52;29.60
10652;BME280;5374;42.742;23.266;2023-07-28T06:56:36;95518.69;;;29.88;30.72
10652;BME280;5374;42.742;23.266;2023-07-28T06:59:23;95535.81;;;30.08;29.35
10652;BME280;5374;42.742;23.266;2023-07-28T07:02:12;95526.44;;;30.09;29.81
10652;BME280;5374;42.742;23.266;2023-07-28T07:05:00;95529.41;;;30.30;29.21
10652;BME280;5374;42.742;23.266;2023-07-28T07:07:48;95519.56;;;30.22;29.72
10652;BME280;5374;42.742;23.266;2023-07-28T07:10:35;95520.25;;;30.49;29.75
10652;BME280;5374;42.742;23.266;2023-07-28T07:13:23;95513.47;;;30.39;29.01
10652;BME280;5374;42.742;23.266;2023-07-28T07:16:13;95500.09;;;30.34;29.68
10652;BME280;5374;42.742;23.266;2023-07-28T07:19:03;95525.66;;;30.79;28.65
10652;BME280;5374;42.742;23.266;2023-07-28T07:21:50;95524.16;;;30.85;29.27
10652;BME280;5374;42.742;23.266;2023-07-28T07:24:37;95527.91;;;31.10;27.91
10652;BME280;5374;42.742;23.266;2023-07-28T07:27:25;95530.63;;;30.66;28.92
10652;BME280;5374;42.742;23.266;2023-07-28T07:30:12;95525.06;;;31.00;29.26
10652;BME280;5374;42.742;23.266;2023-07-28T07:32:59;95526.97;;;30.95;28.91
10652;BME280;5374;42.742;23.266;2023-07-28T07:35:48;95532.75;;;31.24;28.09
10652;BME280;5374;42.742;23.266;2023-07-28T07:38:35;95524.63;;;31.42;28.11
10652;BME280;5374;42.742;23.266;2023-07-28T07:41:22;95515.63;;;31.45;29.20
10652;BME280;5374;42.742;23.266;2023-07-28T07:44:09;95527.91;;;31.65;28.18
10652;BME280;5374;42.742;23.266;2023-07-28T07:47:00;95535.47;;;31.72;27.60
10652;BME280;5374;42.742;23.266;2023-07-28T07:49:47;95528.47;;;31.81;27.60
10652;BME280;5374;42.742;23.266;2023-07-28T07:52:36;95519.69;;;31.10;28.81
10652;BME280;5374;42.742;23.266;2023-07-28T07:55:23;95511.28;;;31.37;29.14
10652;BME280;5374;42.742;23.266;2023-07-28T07:58:24;95531.56;;;31.76;28.93
10652;BME280;5374;42.742;23.266;2023-07-28T08:01:27;95528.72;;;31.62;27.77
10652;BME280;5374;42.742;23.266;2023-07-28T08:04:20;95529.34;;;31.38;28.49
10652;BME280;5374;42.742;23.266;2023-07-28T08:07:09;95529.47;;;31.59;28.44
10652;BME280;5374;42.742;23.266;2023-07-28T08:10:09;95487.91;;;31.60;27.90
10652;BME280;5374;42.742;23.266;2023-07-28T08:13:02;95496.09;;;31.53;27.98
10652;BME280;5374;42.742;23.266;2023-07-28T08:15:59;95517.53;;;31.34;29.84
10652;BME280;5374;42.742;23.266;2023-07-28T08:18:50;95511.31;;;31.44;28.41
10652;BME280;5374;42.742;23.266;2023-07-28T08:21:38;95492.81;;;31.34;28.38
10652;BME280;5374;42.742;23.266;2023-07-28T08:24:25;95501.56;;;31.02;28.94
10652;BME280;5374;42.742;23.266;2023-07-28T08:27:15;95513.41;;;31.10;28.92
10652;BME280;5374;42.742;23.266;2023-07-28T08:30:02;95500.16;;;30.75;29.61
10652;BME280;5374;42.742;23.266;2023-07-28T08:32:51;95483.50;;;30.98;28.38
10652;BME280;5374;42.742;23.266;2023-07-28T08:35:38;95510.81;;;30.83;28.93
10652;BME280;5374;42.742;23.266;2023-07-28T08:38:25;95483.75;;;30.82;29.68
10652;BME280;5374;42.742;23.266;2023-07-28T08:41:12;95489.66;;;30.43;30.55
10652;BME280;5374;42.742;23.266;2023-07-28T08:44:02;95504.63;;;30.90;29.89
10652;BME280;5374;42.742;23.266;2023-07-28T08:46:49;95501.94;;;31.01;29.90
10652;BME280;5374;42.742;23.266;2023-07-28T08:49:36;95499.34;;;31.11;29.53
10652;BME280;5374;42.742;23.266;2023-07-28T08:52:23;95504.97;;;31.33;29.25
10652;BME280;5374;42.742;23.266;2023-07-28T08:55:11;95489.44;;;31.58;29.38
10652;BME280;5374;42.742;23.266;2023-07-28T08:58:13;95465.03;;;31.39;28.84
10652;BME280;5374;42.742;23.266;2023-07-28T09:01:02;95466.97;;;31.42;28.49
10652;BME280;5374;42.742;23.266;2023-07-28T09:03:50;95464.56;;;31.30;28.66
10652;BME280;5374;42.742;23.266;2023-07-28T09:06:37;95460.19;;;31.21;30.04
10652;BME280;5374;42.742;23.266;2023-07-28T09:09:31;95463.88;;;31.47;30.08
10652;BME280;5374;42.742;23.266;2023-07-28T09:12:23;95450.81;;;31.26;29.11
10652;BME280;5374;42.742;23.266;2023-07-28T09:15:10;95442.19;;;31.24;29.46
10652;BME280;5374;42.742;23.266;2023-07-28T09:18:00;95442.16;;;31.17;29.33
10652;BME280;5374;42.742;23.266;2023-07-28T09:20:47;95441.75;;;31.18;30.17
10652;BME280;5374;42.742;23.266;2023-07-28T09:23:36;95430.81;;;31.25;28.60
10652;BME280;5374;42.742;23.266;2023-07-28T09:26:23;95426.84;;;31.19;28.20
10652;BME280;5374;42.742;23.266;2023-07-28T09:29:12;95430.28;;;31.06;29.03
10652;BME280;5374;42.742;23.266;2023-07-28T09:32:03;95411.34;;;30.90;29.52
10652;BME280;5374;42.742;23.266;2023-07-28T09:35:05;95397.19;;;30.84;29.43
10652;BME280;5374;42.742;23.266;2023-07-28T09:37:54;95414.31;;;31.22;29.48
10652;BME280;5374;42.742;23.266;2023-07-28T09:40:43;95406.16;;;31.33;28.90
10652;BME280;5374;42.742;23.266;2023-07-28T09:43:30;95382.22;;;31.26;28.39
10652;BME280;5374;42.742;23.266;2023-07-28T09:46:19;95396.00;;;31.44;28.06
10652;BME280;5374;42.742;23.266;2023-07-28T09:49:10;95402.31;;;31.48;27.88
10652;BME280;5374;42.742;23.266;2023-07-28T09:52:04;95396.88;;;31.55;28.25
10652;BME280;5374;42.742;23.266;2023-07-28T09:54:53;95392.22;;;31.01;29.16
10652;BME280;5374;42.742;23.266;2023-07-28T09:57:45;95388.94;;;31.36;29.12
10652;BME280;5374;42.742;23.266;2023-07-28T10:00:33;95373.63;;;31.31;28.45
10652;BME280;5374;42.742;23.266;2023-07-28T10:03:20;95392.91;;;31.49;28.92
10652;BME280;5374;42.742;23.266;2023-07-28T10:06:08;95371.69;;;31.42;27.50
10652;BME280;5374;42.742;23.266;2023-07-28T10:08:56;95360.03;;;31.63;28.26
10652;BME280;5374;42.742;23.266;2023-07-28T10:11:44;95383.72;;;32.00;27.41
10652;BME280;5374;42.742;23.266;2023-07-28T10:14:34;95382.88;;;31.81;28.24
10652;BME280;5374;42.742;23.266;2023-07-28T10:17:30;95382.44;;;31.72;29.15
10652;BME280;5374;42.742;23.266;2023-07-28T10:20:33;95380.16;;;31.99;29.45
10652;BME280;5374;42.742;23.266;2023-07-28T10:23:22;95374.75;;;32.20;29.12
10652;BME280;5374;42.742;23.266;2023-07-28T10:26:10;95373.59;;;32.25;29.03
10652;BME280;5374;42.742;23.266;2023-07-28T10:29:07;95361.34;;;32.05;28.51
10652;BME280;5374;42.742;23.266;2023-07-28T10:31:55;95361.34;;;32.12;28.76
10652;BME280;5374;42.742;23.266;2023-07-28T10:34:58;95355.53;;;32.27;28.46
10652;BME280;5374;42.742;23.266;2023-07-28T10:37:46;95353.16;;;32.37;27.42
10652;BME280;5374;42.742;23.266;2023-07-28T10:40:34;95347.69;;;32.44;27.35
10652;BME280;5374;42.742;23.266;2023-07-28T10:43:23;95346.09;;;32.57;28.67
10652;BME280;5374;42.742;23.266;2023-07-28T10:46:11;95341.38;;;32.61;27.29
10652;BME280;5374;42.742;23.266;2023-07-28T10:49:04;95342.94;;;32.58;26.50
10652;BME280;5374;42.742;23.266;2023-07-28T10:51:51;95334.69;;;32.62;28.71
10652;BME280;5374;42.742;23.266;2023-07-28T10:54:39;95322.91;;;32.65;28.68
10652;BME280;5374;42.742;23.266;2023-07-28T10:57:26;95342.94;;;32.94;28.82
10652;BME280;5374;42.742;23.266;2023-07-28T11:00:16;95331.56;;;32.92;27.75
10652;BME280;5374;42.742;23.266;2023-07-28T11:03:03;95326.84;;;32.82;26.31
10652;BME280;5374;42.742;23.266;2023-07-28T11:05:51;95318.97;;;32.70;27.42
10652;BME280;5374;42.742;23.266;2023-07-28T11:08:38;95318.59;;;32.82;28.54
10652;BME280;5374;42.742;23.266;2023-07-28T11:11:26;95318.97;;;32.77;26.45
10652;BME280;5374;42.742;23.266;2023-07-28T11:14:14;95302.88;;;32.61;28.09
10652;BME280;5374;42.742;23.266;2023-07-28T11:17:05;95290.69;;;32.55;28.50
10652;BME280;5374;42.742;23.266;2023-07-28T11:19:52;95309.94;;;32.76;27.79
10652;BME280;5374;42.742;23.266;2023-07-28T11:22:40;95304.84;;;32.82;26.55
10652;BME280;5374;42.742;23.266;2023-07-28T11:25:29;95305.22;;;32.55;27.15
10652;BME280;5374;42.742;23.266;2023-07-28T11:28:19;95278.94;;;32.51;26.98
10652;BME280;5374;42.742;23.266;2023-07-28T11:31:07;95279.69;;;32.69;28.20
10652;BME280;5374;42.742;23.266;2023-07-28T11:33:57;95273.78;;;32.78;26.84
10652;BME280;5374;42.742;23.266;2023-07-28T11:36:47;95264.38;;;32.72;27.55
10652;BME280;5374;42.742;23.266;2023-07-28T11:39:48;95260.41;;;32.87;26.83
10652;BME280;5374;42.742;23.266;2023-07-28T11:42:37;95273.38;;;32.90;27.83
10652;BME280;5374;42.742;23.266;2023-07-28T11:45:24;95278.50;;;32.91;27.95
10652;BME280;5374;42.742;23.266;2023-07-28T11:48:14;95267.50;;;32.81;27.74
10652;BME280;5374;42.742;23.266;2023-07-28T11:51:03;95279.28;;;32.81;26.54
10652;BME280;5374;42.742;23.266;2023-07-28T11:53:50;95271.06;;;32.56;26.90
10652;BME280;5374;42.742;23.266;2023-07-28T11:56:37;95271.47;;;32.51;28.03
10652;BME280;5374;42.742;23.266;2023-07-28T11:59:24;95287.94;;;32.55;27.16
10652;BME280;5374;42.742;23.266;2023-07-28T12:02:11;95287.19;;;32.47;26.96
10652;BME280;5374;42.742;23.266;2023-07-28T12:04:59;95271.88;;;32.39;27.63
10652;BME280;5374;42.742;23.266;2023-07-28T12:07:48;95271.47;;;32.44;27.55
10652;BME280;5374;42.742;23.266;2023-07-28T12:10:35;95271.44;;;32.16;26.42
10652;BME280;5374;42.742;23.266;2023-07-28T12:13:23;95232.97;;;31.94;27.22
10652;BME280;5374;42.742;23.266;2023-07-28T12:16:39;95254.59;;;32.07;27.52
10652;BME280;5374;42.742;23.266;2023-07-28T12:19:27;95240.03;;;32.10;27.84
10652;BME280;5374;42.742;23.266;2023-07-28T12:22:14;95234.94;;;32.19;27.42
10652;BME280;5374;42.742;23.266;2023-07-28T12:25:03;95250.66;;;32.43;27.21
10652;BME280;5374;42.742;23.266;2023-07-28T12:27:51;95220.44;;;32.29;27.40
10652;BME280;5374;42.742;23.266;2023-07-28T12:30:38;95216.88;;;32.32;27.15
10652;BME280;5374;42.742;23.266;2023-07-28T12:33:25;95239.25;;;31.70;27.58
10652;BME280;5374;42.742;23.266;2023-07-28T12:36:12;95222.78;;;31.81;27.50
10652;BME280;5374;42.742;23.266;2023-07-28T12:39:00;95207.47;;;31.87;27.36
10652;BME280;5374;42.742;23.266;2023-07-28T12:41:48;95236.91;;;32.15;28.43
10652;BME280;5374;42.742;23.266;2023-07-28T12:44:35;95222.00;;;32.19;27.90
10652;BME280;5374;42.742;23.266;2023-07-28T12:47:23;95206.66;;;32.40;27.42
10652;BME280;5374;42.742;23.266;2023-07-28T12:50:10;95214.53;;;32.13;27.32
10652;BME280;5374;42.742;23.266;2023-07-28T12:52:57;95205.91;;;31.82;27.76
10652;BME280;5374;42.742;23.266;2023-07-28T12:55:45;95212.56;;;31.92;27.68
10652;BME280;5374;42.742;23.266;2023-07-28T12:58:33;95173.31;;;31.56;27.74
10652;BME280;5374;42.742;23.266;2023-07-28T13:01:20;95166.63;;;31.36;27.65
10652;BME280;5374;42.742;23.266;2023-07-28T13:04:07;95163.13;;;31.60;28.44
10652;BME280;5374;42.742;23.266;2023-07-28T13:06:54;95185.09;;;31.88;27.31
10652;BME280;5374;42.742;23.266;2023-07-28T13:09:41;95174.91;;;31.85;27.18
10652;BME280;5374;42.742;23.266;2023-07-28T13:12:29;95179.59;;;31.88;27.00
10652;BME280;5374;42.742;23.266;2023-07-28T13:15:18;95171.38;;;31.88;27.14
10652;BME280;5374;42.742;23.266;2023-07-28T13:18:05;95169.00;;;31.98;28.09
10652;BME280;5374;42.742;23.266;2023-07-28T13:20:53;95158.41;;;32.00;28.41
10652;BME280;5374;42.742;23.266;2023-07-28T13:23:40;95169.41;;;32.24;28.22
10652;BME280;5374;42.742;23.266;2023-07-28T13:26:27;95146.63;;;32.10;27.58
10652;BME280;5374;42.742;23.266;2023-07-28T13:29:14;95143.47;;;32.11;27.61
10652;BME280;5374;42.742;23.266;2023-07-28T13:32:03;95164.66;;;32.11;28.12
10652;BME280;5374;42.742;23.266;2023-07-28T13:34:51;95151.75;;;31.90;27.87
10652;BME280;5374;42.742;23.266;2023-07-28T13:37:38;95122.34;;;31.83;28.17
10652;BME280;5374;42.742;23.266;2023-07-28T13:40:25;95147.03;;;32.05;28.63
10652;BME280;5374;42.742;23.266;2023-07-28T13:43:13;95146.63;;;31.95;28.40
10652;BME280;5374;42.742;23.266;2023-07-28T13:46:00;95167.03;;;32.12;28.24
10652;BME280;5374;42.742;23.266;2023-07-28T13:48:48;95162.34;;;32.23;28.29
10652;BME280;5374;42.742;23.266;2023-07-28T13:51:36;95147.03;;;32.22;28.09
10652;BME280;5374;42.742;23.266;2023-07-28T13:54:23;95161.13;;;32.39;27.83
10652;BME280;5374;42.742;23.266;2023-07-28T13:57:10;95149.78;;;32.08;28.08
10652;BME280;5374;42.742;23.266;2023-07-28T13:59:57;95144.25;;;32.12;28.30
10652;BME280;5374;42.742;23.266;2023-07-28T14:02:45;95148.19;;;32.11;28.21
10652;BME280;5374;42.742;23.266;2023-07-28T14:05:33;95161.53;;;32.19;28.51
10652;BME280;5374;42.742;23.266;2023-07-28T14:08:20;95154.09;;;32.02;27.94
10652;BME280;5374;42.742;23.266;2023-07-28T14:11:08;95154.88;;;31.95;28.61
10652;BME280;5374;42.742;23.266;2023-07-28T14:13:55;95149.78;;;31.90;29.05
10652;BME280;5374;42.742;23.266;2023-07-28T14:16:42;95154.88;;;31.99;28.26
10652;BME280;5374;42.742;23.266;2023-07-28T14:19:30;95164.31;;;32.02;28.15
10652;BME280;5374;42.742;23.266;2023-07-28T14:22:18;95155.66;;;31.92;28.73
10652;BME280;5374;42.742;23.266;2023-07-28T14:25:06;95167.84;;;31.99;28.26
10652;BME280;5374;42.742;23.266;2023-07-28T14:27:53;95158.41;;;31.92;28.32
10652;BME280;5374;42.742;23.266;2023-07-28T14:30:41;95136.44;;;31.92;28.73
10652;BME280;5374;42.742;23.266;2023-07-28T14:33:31;95140.38;;;32.06;28.23
10652;BME280;5374;42.742;23.266;2023-07-28T14:36:18;95149.78;;;32.05;27.96
10652;BME280;5374;42.742;23.266;2023-07-28T14:39:08;95152.53;;;32.08;27.91
10652;BME280;5374;42.742;23.266;2023-07-28T14:41:55;95147.03;;;32.05;28.32
10652;BME280;5374;42.742;23.266;2023-07-28T14:44:42;95145.06;;;32.05;28.40
10652;BME280;5374;42.742;23.266;2023-07-28T14:47:30;95143.91;;;32.03;28.40
10652;BME280;5374;42.742;23.266;2023-07-28T14:50:18;95147.81;;;31.94;28.23
10652;BME280;5374;42.742;23.266;2023-07-28T14:53:30;95142.72;;;31.97;27.20